Hlavní strana
METAR-TAF:

METAR-TAF

Letiště :

Teslin, Yukon, Kanada

zeměpisná šířka: 60-10N, zeměpisná délka: 132-44W, výška: 711 m

Aktuální stav počasí

Zpráva byla vytvořena před 43 minutami, v 22:00 UTC
Východní vítr 7 kt
Teplota -8°C
Vlhkost vzduchu 85%
Tlak 998 hPa
Viditelnost: 1.6 km
Zataženo ve výšce 1800 ft
slabé sněžení

METAR: CYZW 212200Z 10007KT 1SM -SN OVC018 M08/M10 A2948 RMK SN4SC4 SLP039

Čas: 14:43 (22:43 UTC)

Předpověď počasí

Zpráva byla vytvořena před 3 hodinami a 56 minutami, v 18:47 UTC
Předpověď platná od 21 v 19 UTC do 22 v 01 UTC
vítr z různých směrů 3 kt
Viditelnost: 1.6 km
Zataženo ve výšce 2000 ft
slabé sněžení
Dočasný
od 21 v 19 UTC do 22 v 01 UTC
Viditelnost: 3.2 km
Zataženo ve výšce 2500 ft
slabé sněžení

TAF: CYZW 211847Z 2119/2201 VRB03KT 1SM -SN OVC020 TEMPO 2119/2201 2SM -SN OVC025 RMK NXT FCST WILL BE ISSUED AT 221845Z

Stav a předpovědi počasí z více než 4 000 letišť (zprávy METAR a TAF).

Červené a žluté tečky na mapě představují dostupné meteorologické stanice.

Když kurzor umístíte na tečku, zobrazí se název stanice.

Pak kliknutím zobrazíte stav a předpověď počasí.

Chcete-li změnit mapu, kliknutím na zelené tlačítko se znaménkem +mapu přiblížíte, kliknutím na zelené tlačítko se znaménkem – mapu oddálíte a kliknutím na zelené šipky přejdete na sousední mapy.


METAR-TAF: